sensor_id;sensor_type;location;lat;lon;timestamp;P1;durP1;ratioP1;P2;durP2;ratioP2
19087;SDS011;9676;50.916;13.352;2023-06-10T00:01:57;14.23;;;12.83;;
19087;SDS011;9676;50.916;13.352;2023-06-10T00:04:47;15.20;;;13.60;;
19087;SDS011;9676;50.916;13.352;2023-06-10T00:07:38;14.40;;;13.10;;
19087;SDS011;9676;50.916;13.352;2023-06-10T00:10:28;14.00;;;12.70;;
19087;SDS011;9676;50.916;13.352;2023-06-10T00:13:18;14.30;;;13.00;;
19087;SDS011;9676;50.916;13.352;2023-06-10T00:16:07;13.97;;;12.67;;
19087;SDS011;9676;50.916;13.352;2023-06-10T00:18:58;14.73;;;13.33;;
19087;SDS011;9676;50.916;13.352;2023-06-10T00:21:48;15.33;;;13.80;;
19087;SDS011;9676;50.916;13.352;2023-06-10T00:24:39;14.00;;;12.40;;
19087;SDS011;9676;50.916;13.352;2023-06-10T00:27:29;13.53;;;12.20;;
19087;SDS011;9676;50.916;13.352;2023-06-10T00:30:22;14.03;;;12.73;;
19087;SDS011;9676;50.916;13.352;2023-06-10T00:33:12;14.00;;;12.70;;
19087;SDS011;9676;50.916;13.352;2023-06-10T00:36:01;13.87;;;12.40;;
19087;SDS011;9676;50.916;13.352;2023-06-10T00:38:51;15.63;;;12.80;;
19087;SDS011;9676;50.916;13.352;2023-06-10T00:41:41;13.80;;;12.50;;
19087;SDS011;9676;50.916;13.352;2023-06-10T00:44:31;13.97;;;12.57;;
19087;SDS011;9676;50.916;13.352;2023-06-10T00:47:20;14.90;;;13.23;;
19087;SDS011;9676;50.916;13.352;2023-06-10T00:50:10;14.17;;;12.70;;
19087;SDS011;9676;50.916;13.352;2023-06-10T00:52:59;15.03;;;13.53;;
19087;SDS011;9676;50.916;13.352;2023-06-10T00:55:50;15.53;;;14.07;;
19087;SDS011;9676;50.916;13.352;2023-06-10T00:58:41;15.13;;;13.63;;
19087;SDS011;9676;50.916;13.352;2023-06-10T01:01:31;19.17;;;14.90;;
19087;SDS011;9676;50.916;13.352;2023-06-10T01:04:22;17.30;;;13.80;;
19087;SDS011;9676;50.916;13.352;2023-06-10T01:07:14;15.53;;;13.90;;
19087;SDS011;9676;50.916;13.352;2023-06-10T01:10:15;15.83;;;13.97;;
19087;SDS011;9676;50.916;13.352;2023-06-10T01:13:10;15.03;;;13.53;;
19087;SDS011;9676;50.916;13.352;2023-06-10T01:16:02;15.03;;;13.63;;
19087;SDS011;9676;50.916;13.352;2023-06-10T01:18:52;15.33;;;13.83;;
19087;SDS011;9676;50.916;13.352;2023-06-10T01:21:43;14.20;;;12.90;;
19087;SDS011;9676;50.916;13.352;2023-06-10T01:24:38;13.73;;;12.43;;
19087;SDS011;9676;50.916;13.352;2023-06-10T01:27:30;15.73;;;12.90;;
19087;SDS011;9676;50.916;13.352;2023-06-10T01:30:27;13.90;;;12.60;;
19087;SDS011;9676;50.916;13.352;2023-06-10T01:33:27;13.80;;;12.40;;
19087;SDS011;9676;50.916;13.352;2023-06-10T01:36:21;14.50;;;13.10;;
19087;SDS011;9676;50.916;13.352;2023-06-10T01:39:13;13.93;;;12.63;;
19087;SDS011;9676;50.916;13.352;2023-06-10T01:42:05;14.27;;;12.77;;
19087;SDS011;9676;50.916;13.352;2023-06-10T01:44:56;14.00;;;12.60;;
19087;SDS011;9676;50.916;13.352;2023-06-10T01:47:45;13.97;;;12.67;;
19087;SDS011;9676;50.916;13.352;2023-06-10T01:50:35;13.77;;;12.40;;
19087;SDS011;9676;50.916;13.352;2023-06-10T01:53:24;13.97;;;12.57;;
19087;SDS011;9676;50.916;13.352;2023-06-10T01:56:15;13.40;;;12.10;;
19087;SDS011;9676;50.916;13.352;2023-06-10T01:59:06;13.40;;;12.10;;
19087;SDS011;9676;50.916;13.352;2023-06-10T02:01:56;14.27;;;12.87;;
19087;SDS011;9676;50.916;13.352;2023-06-10T02:04:45;13.80;;;12.50;;
19087;SDS011;9676;50.916;13.352;2023-06-10T02:07:34;14.10;;;12.70;;
19087;SDS011;9676;50.916;13.352;2023-06-10T02:10:25;13.83;;;12.43;;
19087;SDS011;9676;50.916;13.352;2023-06-10T02:13:18;14.73;;;13.23;;
19087;SDS011;9676;50.916;13.352;2023-06-10T02:16:11;13.20;;;12.00;;
19087;SDS011;9676;50.916;13.352;2023-06-10T02:19:01;13.63;;;12.33;;
19087;SDS011;9676;50.916;13.352;2023-06-10T02:21:53;14.80;;;13.10;;
19087;SDS011;9676;50.916;13.352;2023-06-10T02:24:43;14.30;;;12.90;;
19087;SDS011;9676;50.916;13.352;2023-06-10T02:27:32;14.40;;;13.00;;
19087;SDS011;9676;50.916;13.352;2023-06-10T02:30:23;14.83;;;13.33;;
19087;SDS011;9676;50.916;13.352;2023-06-10T02:33:12;14.70;;;13.20;;
19087;SDS011;9676;50.916;13.352;2023-06-10T02:36:03;15.27;;;13.77;;
19087;SDS011;9676;50.916;13.352;2023-06-10T02:38:53;14.10;;;12.70;;
19087;SDS011;9676;50.916;13.352;2023-06-10T02:41:43;13.47;;;12.17;;
19087;SDS011;9676;50.916;13.352;2023-06-10T02:44:33;14.47;;;12.97;;
19087;SDS011;9676;50.916;13.352;2023-06-10T02:47:24;14.33;;;12.83;;
19087;SDS011;9676;50.916;13.352;2023-06-10T02:50:14;13.80;;;12.50;;
19087;SDS011;9676;50.916;13.352;2023-06-10T02:53:17;14.10;;;12.70;;
19087;SDS011;9676;50.916;13.352;2023-06-10T02:56:13;13.10;;;11.90;;
19087;SDS011;9676;50.916;13.352;2023-06-10T02:59:05;14.30;;;12.90;;
19087;SDS011;9676;50.916;13.352;2023-06-10T03:01:55;13.80;;;12.50;;
19087;SDS011;9676;50.916;13.352;2023-06-10T03:04:47;14.27;;;12.87;;
19087;SDS011;9676;50.916;13.352;2023-06-10T03:07:39;13.80;;;12.50;;
19087;SDS011;9676;50.916;13.352;2023-06-10T03:10:28;13.73;;;12.43;;
19087;SDS011;9676;50.916;13.352;2023-06-10T03:13:21;14.23;;;12.83;;
19087;SDS011;9676;50.916;13.352;2023-06-10T03:16:11;13.80;;;12.50;;
19087;SDS011;9676;50.916;13.352;2023-06-10T03:19:01;13.70;;;12.40;;
19087;SDS011;9676;50.916;13.352;2023-06-10T03:22:06;13.93;;;12.63;;
19087;SDS011;9676;50.916;13.352;2023-06-10T03:25:18;13.33;;;11.90;;
19087;SDS011;9676;50.916;13.352;2023-06-10T03:28:12;14.23;;;12.70;;
19087;SDS011;9676;50.916;13.352;2023-06-10T03:31:02;14.10;;;12.70;;
19087;SDS011;9676;50.916;13.352;2023-06-10T03:33:52;14.20;;;12.80;;
19087;SDS011;9676;50.916;13.352;2023-06-10T03:36:42;13.63;;;12.33;;
19087;SDS011;9676;50.916;13.352;2023-06-10T03:39:33;13.90;;;12.60;;
19087;SDS011;9676;50.916;13.352;2023-06-10T03:42:23;14.63;;;13.13;;
19087;SDS011;9676;50.916;13.352;2023-06-10T03:45:12;14.83;;;13.37;;
19087;SDS011;9676;50.916;13.352;2023-06-10T03:48:02;14.30;;;12.90;;
19087;SDS011;9676;50.916;13.352;2023-06-10T03:51:01;14.10;;;12.80;;
19087;SDS011;9676;50.916;13.352;2023-06-10T03:53:51;14.00;;;12.80;;
19087;SDS011;9676;50.916;13.352;2023-06-10T03:56:43;13.60;;;12.30;;
19087;SDS011;9676;50.916;13.352;2023-06-10T03:59:32;13.73;;;12.43;;
19087;SDS011;9676;50.916;13.352;2023-06-10T04:02:21;13.90;;;12.50;;
19087;SDS011;9676;50.916;13.352;2023-06-10T04:05:11;14.97;;;13.53;;
19087;SDS011;9676;50.916;13.352;2023-06-10T04:08:01;15.53;;;13.03;;
19087;SDS011;9676;50.916;13.352;2023-06-10T04:10:50;14.20;;;12.90;;
19087;SDS011;9676;50.916;13.352;2023-06-10T04:13:41;14.33;;;12.83;;
19087;SDS011;9676;50.916;13.352;2023-06-10T04:16:32;13.90;;;12.50;;
19087;SDS011;9676;50.916;13.352;2023-06-10T04:19:23;15.13;;;12.60;;
19087;SDS011;9676;50.916;13.352;2023-06-10T04:22:13;14.00;;;12.70;;
19087;SDS011;9676;50.916;13.352;2023-06-10T04:25:02;13.80;;;12.60;;
19087;SDS011;9676;50.916;13.352;2023-06-10T04:27:52;14.37;;;12.97;;
19087;SDS011;9676;50.916;13.352;2023-06-10T04:30:43;15.20;;;12.97;;
19087;SDS011;9676;50.916;13.352;2023-06-10T04:33:33;13.20;;;12.00;;
19087;SDS011;9676;50.916;13.352;2023-06-10T04:36:24;12.83;;;11.50;;
19087;SDS011;9676;50.916;13.352;2023-06-10T04:39:13;13.60;;;12.00;;
19087;SDS011;9676;50.916;13.352;2023-06-10T04:42:05;12.70;;;11.50;;
19087;SDS011;9676;50.916;13.352;2023-06-10T04:44:55;12.53;;;11.33;;
19087;SDS011;9676;50.916;13.352;2023-06-10T04:47:46;12.93;;;11.57;;
19087;SDS011;9676;50.916;13.352;2023-06-10T04:50:35;12.10;;;11.00;;
19087;SDS011;9676;50.916;13.352;2023-06-10T04:53:26;12.60;;;11.40;;
19087;SDS011;9676;50.916;13.352;2023-06-10T04:56:16;12.60;;;11.30;;
19087;SDS011;9676;50.916;13.352;2023-06-10T04:59:05;12.17;;;11.00;;
19087;SDS011;9676;50.916;13.352;2023-06-10T05:01:55;11.70;;;10.60;;
19087;SDS011;9676;50.916;13.352;2023-06-10T05:04:45;12.00;;;10.80;;
19087;SDS011;9676;50.916;13.352;2023-06-10T05:07:35;11.70;;;10.53;;
19087;SDS011;9676;50.916;13.352;2023-06-10T05:10:24;11.03;;;10.03;;
19087;SDS011;9676;50.916;13.352;2023-06-10T05:13:13;11.00;;;9.90;;
19087;SDS011;9676;50.916;13.352;2023-06-10T05:16:04;11.40;;;10.30;;
19087;SDS011;9676;50.916;13.352;2023-06-10T05:18:54;10.93;;;9.93;;
19087;SDS011;9676;50.916;13.352;2023-06-10T05:21:45;10.70;;;9.70;;
19087;SDS011;9676;50.916;13.352;2023-06-10T05:24:34;10.60;;;9.60;;
19087;SDS011;9676;50.916;13.352;2023-06-10T05:27:24;10.90;;;9.90;;
19087;SDS011;9676;50.916;13.352;2023-06-10T05:30:13;10.40;;;9.50;;
19087;SDS011;9676;50.916;13.352;2023-06-10T05:33:04;10.60;;;9.63;;
19087;SDS011;9676;50.916;13.352;2023-06-10T05:35:54;10.77;;;9.77;;
19087;SDS011;9676;50.916;13.352;2023-06-10T05:38:44;10.50;;;9.57;;
19087;SDS011;9676;50.916;13.352;2023-06-10T05:41:34;10.70;;;9.57;;
19087;SDS011;9676;50.916;13.352;2023-06-10T05:44:24;10.50;;;9.50;;
19087;SDS011;9676;50.916;13.352;2023-06-10T05:47:13;10.50;;;9.60;;
19087;SDS011;9676;50.916;13.352;2023-06-10T05:50:03;10.10;;;9.20;;
19087;SDS011;9676;50.916;13.352;2023-06-10T05:52:54;10.03;;;9.13;;
19087;SDS011;9676;50.916;13.352;2023-06-10T05:55:45;10.27;;;9.37;;
19087;SDS011;9676;50.916;13.352;2023-06-10T05:58:35;10.13;;;9.23;;
19087;SDS011;9676;50.916;13.352;2023-06-10T06:01:24;10.20;;;9.27;;
19087;SDS011;9676;50.916;13.352;2023-06-10T06:04:14;9.90;;;9.00;;
19087;SDS011;9676;50.916;13.352;2023-06-10T06:07:04;10.20;;;9.20;;
19087;SDS011;9676;50.916;13.352;2023-06-10T06:09:54;10.07;;;9.10;;
19087;SDS011;9676;50.916;13.352;2023-06-10T06:12:45;10.10;;;9.10;;
19087;SDS011;9676;50.916;13.352;2023-06-10T06:15:34;10.43;;;9.03;;
19087;SDS011;9676;50.916;13.352;2023-06-10T06:18:24;10.30;;;9.20;;
19087;SDS011;9676;50.916;13.352;2023-06-10T06:21:14;10.97;;;9.70;;
19087;SDS011;9676;50.916;13.352;2023-06-10T06:24:06;10.53;;;9.53;;
19087;SDS011;9676;50.916;13.352;2023-06-10T06:26:56;10.20;;;9.30;;
19087;SDS011;9676;50.916;13.352;2023-06-10T06:29:47;10.30;;;9.30;;
19087;SDS011;9676;50.916;13.352;2023-06-10T06:32:36;10.75;;;9.07;;
19087;SDS011;9676;50.916;13.352;2023-06-10T06:35:26;10.13;;;9.23;;
19087;SDS011;9676;50.916;13.352;2023-06-10T06:38:15;9.73;;;8.93;;
19087;SDS011;9676;50.916;13.352;2023-06-10T06:41:05;10.15;;;9.10;;
19087;SDS011;9676;50.916;13.352;2023-06-10T06:43:54;10.27;;;9.27;;
19087;SDS011;9676;50.916;13.352;2023-06-10T06:46:46;9.55;;;8.75;;
19087;SDS011;9676;50.916;13.352;2023-06-10T06:49:35;9.93;;;9.02;;
19087;SDS011;9676;50.916;13.352;2023-06-10T06:52:25;10.10;;;9.20;;
19087;SDS011;9676;50.916;13.352;2023-06-10T06:55:14;10.15;;;9.20;;
19087;SDS011;9676;50.916;13.352;2023-06-10T06:58:04;11.10;;;10.00;;
19087;SDS011;9676;50.916;13.352;2023-06-10T07:00:53;10.70;;;9.60;;
19087;SDS011;9676;50.916;13.352;2023-06-10T07:03:45;10.20;;;9.30;;
19087;SDS011;9676;50.916;13.352;2023-06-10T07:06:35;10.50;;;9.50;;
19087;SDS011;9676;50.916;13.352;2023-06-10T07:09:25;10.48;;;9.57;;
19087;SDS011;9676;50.916;13.352;2023-06-10T07:12:15;10.55;;;9.50;;
19087;SDS011;9676;50.916;13.352;2023-06-10T07:15:05;11.13;;;9.88;;
19087;SDS011;9676;50.916;13.352;2023-06-10T07:17:56;10.65;;;9.68;;
19087;SDS011;9676;50.916;13.352;2023-06-10T07:20:47;10.80;;;9.80;;
19087;SDS011;9676;50.916;13.352;2023-06-10T07:23:37;10.52;;;9.52;;
19087;SDS011;9676;50.916;13.352;2023-06-10T07:26:30;10.50;;;9.50;;
19087;SDS011;9676;50.916;13.352;2023-06-10T07:29:20;10.50;;;9.50;;
19087;SDS011;9676;50.916;13.352;2023-06-10T07:32:09;10.68;;;9.68;;
19087;SDS011;9676;50.916;13.352;2023-06-10T07:34:59;10.85;;;9.75;;
19087;SDS011;9676;50.916;13.352;2023-06-10T07:37:50;10.85;;;9.73;;
19087;SDS011;9676;50.916;13.352;2023-06-10T07:40:39;11.13;;;10.00;;
19087;SDS011;9676;50.916;13.352;2023-06-10T07:43:29;11.90;;;10.80;;
19087;SDS011;9676;50.916;13.352;2023-06-10T07:46:18;11.23;;;10.13;;
19087;SDS011;9676;50.916;13.352;2023-06-10T07:49:07;11.07;;;10.07;;
19087;SDS011;9676;50.916;13.352;2023-06-10T07:51:57;11.50;;;10.40;;
19087;SDS011;9676;50.916;13.352;2023-06-10T07:54:48;11.43;;;10.33;;
19087;SDS011;9676;50.916;13.352;2023-06-10T07:57:37;11.60;;;10.30;;
19087;SDS011;9676;50.916;13.352;2023-06-10T08:00:26;11.90;;;10.70;;
19087;SDS011;9676;50.916;13.352;2023-06-10T08:03:16;11.73;;;10.53;;
19087;SDS011;9676;50.916;13.352;2023-06-10T08:06:06;12.27;;;10.97;;
19087;SDS011;9676;50.916;13.352;2023-06-10T08:08:55;11.43;;;10.33;;
19087;SDS011;9676;50.916;13.352;2023-06-10T08:11:47;12.87;;;11.30;;
19087;SDS011;9676;50.916;13.352;2023-06-10T08:14:36;11.90;;;10.70;;
19087;SDS011;9676;50.916;13.352;2023-06-10T08:17:26;11.53;;;10.43;;
19087;SDS011;9676;50.916;13.352;2023-06-10T08:20:15;11.30;;;10.20;;
19087;SDS011;9676;50.916;13.352;2023-06-10T08:23:05;11.43;;;10.33;;
19087;SDS011;9676;50.916;13.352;2023-06-10T08:25:54;12.57;;;10.60;;
19087;SDS011;9676;50.916;13.352;2023-06-10T08:28:45;11.70;;;10.60;;
19087;SDS011;9676;50.916;13.352;2023-06-10T08:31:34;11.83;;;10.73;;
19087;SDS011;9676;50.916;13.352;2023-06-10T08:34:24;12.07;;;10.90;;
19087;SDS011;9676;50.916;13.352;2023-06-10T08:37:13;12.10;;;10.80;;
19087;SDS011;9676;50.916;13.352;2023-06-10T08:40:03;13.13;;;11.60;;
19087;SDS011;9676;50.916;13.352;2023-06-10T08:42:58;14.50;;;12.30;;
19087;SDS011;9676;50.916;13.352;2023-06-10T08:45:55;12.87;;;11.53;;
19087;SDS011;9676;50.916;13.352;2023-06-10T08:48:49;12.93;;;11.63;;
19087;SDS011;9676;50.916;13.352;2023-06-10T08:51:43;12.07;;;10.97;;
19087;SDS011;9676;50.916;13.352;2023-06-10T08:54:36;12.70;;;11.40;;
19087;SDS011;9676;50.916;13.352;2023-06-10T08:57:31;12.30;;;11.00;;
19087;SDS011;9676;50.916;13.352;2023-06-10T09:00:22;12.00;;;10.90;;
19087;SDS011;9676;50.916;13.352;2023-06-10T09:03:15;12.30;;;11.10;;
19087;SDS011;9676;50.916;13.352;2023-06-10T09:06:05;13.13;;;11.60;;
19087;SDS011;9676;50.916;13.352;2023-06-10T09:08:55;12.73;;;11.53;;
19087;SDS011;9676;50.916;13.352;2023-06-10T09:11:49;18.90;;;12.40;;
19087;SDS011;9676;50.916;13.352;2023-06-10T09:14:39;12.40;;;11.20;;
19087;SDS011;9676;50.916;13.352;2023-06-10T09:17:28;12.33;;;11.13;;
19087;SDS011;9676;50.916;13.352;2023-06-10T09:20:19;12.00;;;10.80;;
19087;SDS011;9676;50.916;13.352;2023-06-10T09:23:09;11.47;;;10.37;;
19087;SDS011;9676;50.916;13.352;2023-06-10T09:25:58;12.70;;;10.80;;
19087;SDS011;9676;50.916;13.352;2023-06-10T09:28:48;11.57;;;10.47;;
19087;SDS011;9676;50.916;13.352;2023-06-10T09:31:38;11.80;;;10.70;;
19087;SDS011;9676;50.916;13.352;2023-06-10T09:34:29;11.90;;;10.27;;
19087;SDS011;9676;50.916;13.352;2023-06-10T09:37:22;11.40;;;10.30;;
19087;SDS011;9676;50.916;13.352;2023-06-10T09:40:12;11.63;;;10.53;;
19087;SDS011;9676;50.916;13.352;2023-06-10T09:43:02;11.90;;;10.70;;
19087;SDS011;9676;50.916;13.352;2023-06-10T09:45:51;11.83;;;10.70;;
19087;SDS011;9676;50.916;13.352;2023-06-10T09:48:45;12.17;;;11.07;;
19087;SDS011;9676;50.916;13.352;2023-06-10T09:51:36;12.37;;;11.00;;
19087;SDS011;9676;50.916;13.352;2023-06-10T09:54:27;11.97;;;10.80;;
19087;SDS011;9676;50.916;13.352;2023-06-10T09:57:20;12.00;;;10.80;;
19087;SDS011;9676;50.916;13.352;2023-06-10T10:00:11;12.23;;;11.03;;
19087;SDS011;9676;50.916;13.352;2023-06-10T10:03:01;12.07;;;10.77;;
19087;SDS011;9676;50.916;13.352;2023-06-10T10:05:57;11.40;;;10.30;;
19087;SDS011;9676;50.916;13.352;2023-06-10T10:08:48;11.73;;;10.60;;
19087;SDS011;9676;50.916;13.352;2023-06-10T10:11:40;12.50;;;11.10;;
19087;SDS011;9676;50.916;13.352;2023-06-10T10:14:30;12.10;;;10.10;;
19087;SDS011;9676;50.916;13.352;2023-06-10T10:17:22;11.57;;;10.47;;
19087;SDS011;9676;50.916;13.352;2023-06-10T10:20:14;14.20;;;10.27;;
19087;SDS011;9676;50.916;13.352;2023-06-10T10:23:10;11.07;;;9.97;;
19087;SDS011;9676;50.916;13.352;2023-06-10T10:26:04;11.33;;;10.13;;
19087;SDS011;9676;50.916;13.352;2023-06-10T10:29:01;10.23;;;9.33;;
19087;SDS011;9676;50.916;13.352;2023-06-10T10:31:59;10.50;;;9.50;;
19087;SDS011;9676;50.916;13.352;2023-06-10T10:34:53;11.43;;;10.27;;
19087;SDS011;9676;50.916;13.352;2023-06-10T10:37:48;10.87;;;9.77;;
19087;SDS011;9676;50.916;13.352;2023-06-10T10:40:38;10.60;;;9.60;;
19087;SDS011;9676;50.916;13.352;2023-06-10T10:43:28;10.70;;;9.70;;
19087;SDS011;9676;50.916;13.352;2023-06-10T10:46:19;11.60;;;9.70;;
19087;SDS011;9676;50.916;13.352;2023-06-10T10:49:09;11.33;;;10.13;;
19087;SDS011;9676;50.916;13.352;2023-06-10T10:52:01;11.10;;;10.10;;
19087;SDS011;9676;50.916;13.352;2023-06-10T10:54:53;11.10;;;10.00;;
19087;SDS011;9676;50.916;13.352;2023-06-10T10:57:43;11.30;;;10.30;;
19087;SDS011;9676;50.916;13.352;2023-06-10T11:00:33;11.30;;;10.13;;
19087;SDS011;9676;50.916;13.352;2023-06-10T11:03:29;11.00;;;9.90;;
19087;SDS011;9676;50.916;13.352;2023-06-10T11:06:19;11.27;;;10.17;;
19087;SDS011;9676;50.916;13.352;2023-06-10T11:09:27;10.83;;;9.83;;
19087;SDS011;9676;50.916;13.352;2023-06-10T11:12:21;11.40;;;10.30;;
19087;SDS011;9676;50.916;13.352;2023-06-10T11:15:11;10.73;;;9.73;;
19087;SDS011;9676;50.916;13.352;2023-06-10T11:18:08;11.30;;;10.30;;
19087;SDS011;9676;50.916;13.352;2023-06-10T11:21:04;11.40;;;10.30;;
19087;SDS011;9676;50.916;13.352;2023-06-10T11:23:57;11.67;;;10.47;;
19087;SDS011;9676;50.916;13.352;2023-06-10T11:26:47;11.30;;;10.30;;
19087;SDS011;9676;50.916;13.352;2023-06-10T11:29:36;11.40;;;10.30;;
19087;SDS011;9676;50.916;13.352;2023-06-10T11:32:28;12.17;;;10.97;;
19087;SDS011;9676;50.916;13.352;2023-06-10T11:35:20;11.70;;;10.60;;
19087;SDS011;9676;50.916;13.352;2023-06-10T11:38:15;12.53;;;11.20;;
19087;SDS011;9676;50.916;13.352;2023-06-10T11:41:05;12.33;;;11.03;;
19087;SDS011;9676;50.916;13.352;2023-06-10T11:43:56;12.90;;;11.70;;
19087;SDS011;9676;50.916;13.352;2023-06-10T11:46:49;13.90;;;11.07;;
19087;SDS011;9676;50.916;13.352;2023-06-10T11:49:39;12.57;;;11.10;;
19087;SDS011;9676;50.916;13.352;2023-06-10T11:52:32;12.33;;;11.13;;
19087;SDS011;9676;50.916;13.352;2023-06-10T11:55:26;12.80;;;11.50;;
19087;SDS011;9676;50.916;13.352;2023-06-10T11:58:34;12.30;;;11.10;;
19087;SDS011;9676;50.916;13.352;2023-06-10T12:01:24;12.27;;;10.97;;
19087;SDS011;9676;50.916;13.352;2023-06-10T12:04:16;12.37;;;11.07;;
19087;SDS011;9676;50.916;13.352;2023-06-10T12:07:06;13.33;;;11.50;;
19087;SDS011;9676;50.916;13.352;2023-06-10T12:09:58;12.67;;;11.47;;
19087;SDS011;9676;50.916;13.352;2023-06-10T12:12:59;11.90;;;10.70;;
19087;SDS011;9676;50.916;13.352;2023-06-10T12:15:50;12.73;;;11.43;;
19087;SDS011;9676;50.916;13.352;2023-06-10T12:18:41;12.43;;;11.20;;
19087;SDS011;9676;50.916;13.352;2023-06-10T12:21:33;12.70;;;11.07;;
19087;SDS011;9676;50.916;13.352;2023-06-10T12:24:26;13.57;;;12.17;;
19087;SDS011;9676;50.916;13.352;2023-06-10T12:27:15;12.40;;;11.10;;
19087;SDS011;9676;50.916;13.352;2023-06-10T12:30:09;13.10;;;11.77;;
19087;SDS011;9676;50.916;13.352;2023-06-10T12:32:58;13.80;;;11.50;;
19087;SDS011;9676;50.916;13.352;2023-06-10T12:35:48;12.47;;;11.17;;
19087;SDS011;9676;50.916;13.352;2023-06-10T12:38:38;12.70;;;11.40;;
19087;SDS011;9676;50.916;13.352;2023-06-10T12:41:28;13.30;;;11.90;;
19087;SDS011;9676;50.916;13.352;2023-06-10T12:44:24;12.27;;;11.17;;
19087;SDS011;9676;50.916;13.352;2023-06-10T12:47:19;13.17;;;11.87;;
19087;SDS011;9676;50.916;13.352;2023-06-10T12:50:19;11.87;;;10.70;;
19087;SDS011;9676;50.916;13.352;2023-06-10T12:53:09;12.43;;;11.23;;
19087;SDS011;9676;50.916;13.352;2023-06-10T12:55:59;16.43;;;11.60;;
19087;SDS011;9676;50.916;13.352;2023-06-10T12:58:49;12.57;;;11.30;;
19087;SDS011;9676;50.916;13.352;2023-06-10T13:01:39;18.93;;;11.70;;
19087;SDS011;9676;50.916;13.352;2023-06-10T13:04:29;13.23;;;11.73;;
19087;SDS011;9676;50.916;13.352;2023-06-10T13:07:19;12.77;;;11.23;;
19087;SDS011;9676;50.916;13.352;2023-06-10T13:10:10;14.37;;;11.60;;
19087;SDS011;9676;50.916;13.352;2023-06-10T13:13:00;13.33;;;11.73;;
19087;SDS011;9676;50.916;13.352;2023-06-10T13:15:53;12.43;;;11.13;;
19087;SDS011;9676;50.916;13.352;2023-06-10T13:18:42;12.67;;;11.47;;
19087;SDS011;9676;50.916;13.352;2023-06-10T13:21:33;12.20;;;10.90;;
19087;SDS011;9676;50.916;13.352;2023-06-10T13:24:24;12.37;;;11.17;;
19087;SDS011;9676;50.916;13.352;2023-06-10T13:27:14;13.30;;;11.77;;
19087;SDS011;9676;50.916;13.352;2023-06-10T13:30:04;12.47;;;11.17;;
19087;SDS011;9676;50.916;13.352;2023-06-10T13:32:56;13.60;;;11.63;;
19087;SDS011;9676;50.916;13.352;2023-06-10T13:35:46;14.10;;;11.10;;
19087;SDS011;9676;50.916;13.352;2023-06-10T13:38:37;12.50;;;11.20;;
19087;SDS011;9676;50.916;13.352;2023-06-10T13:41:27;13.23;;;11.87;;
19087;SDS011;9676;50.916;13.352;2023-06-10T13:44:17;11.93;;;10.73;;
19087;SDS011;9676;50.916;13.352;2023-06-10T13:47:06;12.40;;;11.10;;
19087;SDS011;9676;50.916;13.352;2023-06-10T13:49:56;12.70;;;11.50;;
19087;SDS011;9676;50.916;13.352;2023-06-10T13:52:45;13.10;;;11.70;;
19087;SDS011;9676;50.916;13.352;2023-06-10T13:55:36;12.63;;;11.33;;
19087;SDS011;9676;50.916;13.352;2023-06-10T13:58:26;12.43;;;11.13;;
19087;SDS011;9676;50.916;13.352;2023-06-10T14:01:16;12.00;;;10.80;;
19087;SDS011;9676;50.916;13.352;2023-06-10T14:04:06;12.57;;;11.37;;
19087;SDS011;9676;50.916;13.352;2023-06-10T14:06:55;12.80;;;11.50;;
19087;SDS011;9676;50.916;13.352;2023-06-10T14:09:45;12.00;;;10.83;;
19087;SDS011;9676;50.916;13.352;2023-06-10T14:12:36;11.83;;;10.73;;
19087;SDS011;9676;50.916;13.352;2023-06-10T14:15:26;12.30;;;11.10;;
19087;SDS011;9676;50.916;13.352;2023-06-10T14:18:18;12.77;;;11.50;;
19087;SDS011;9676;50.916;13.352;2023-06-10T14:21:08;12.33;;;11.03;;
19087;SDS011;9676;50.916;13.352;2023-06-10T14:23:57;12.33;;;11.10;;
19087;SDS011;9676;50.916;13.352;2023-06-10T14:26:46;13.07;;;11.77;;
19087;SDS011;9676;50.916;13.352;2023-06-10T14:29:37;13.23;;;11.80;;
19087;SDS011;9676;50.916;13.352;2023-06-10T14:32:28;15.03;;;11.70;;
19087;SDS011;9676;50.916;13.352;2023-06-10T14:35:17;12.17;;;11.07;;
19087;SDS011;9676;50.916;13.352;2023-06-10T14:38:07;12.60;;;11.40;;
19087;SDS011;9676;50.916;13.352;2023-06-10T14:40:57;12.80;;;11.60;;
19087;SDS011;9676;50.916;13.352;2023-06-10T14:43:46;13.17;;;11.67;;
19087;SDS011;9676;50.916;13.352;2023-06-10T14:46:37;13.10;;;11.60;;
19087;SDS011;9676;50.916;13.352;2023-06-10T14:49:27;12.57;;;11.37;;
19087;SDS011;9676;50.916;13.352;2023-06-10T14:52:16;12.40;;;11.20;;
19087;SDS011;9676;50.916;13.352;2023-06-10T14:55:06;12.67;;;11.10;;
19087;SDS011;9676;50.916;13.352;2023-06-10T14:57:56;12.33;;;11.13;;
19087;SDS011;9676;50.916;13.352;2023-06-10T15:00:45;15.70;;;11.70;;
19087;SDS011;9676;50.916;13.352;2023-06-10T15:03:36;12.47;;;11.17;;
19087;SDS011;9676;50.916;13.352;2023-06-10T15:06:26;12.63;;;11.27;;
19087;SDS011;9676;50.916;13.352;2023-06-10T15:09:15;12.10;;;10.90;;
19087;SDS011;9676;50.916;13.352;2023-06-10T15:12:05;12.73;;;11.43;;
19087;SDS011;9676;50.916;13.352;2023-06-10T15:14:55;12.37;;;11.07;;
19087;SDS011;9676;50.916;13.352;2023-06-10T15:17:44;12.90;;;11.60;;
19087;SDS011;9676;50.916;13.352;2023-06-10T15:20:35;12.70;;;11.47;;
19087;SDS011;9676;50.916;13.352;2023-06-10T15:23:25;12.53;;;11.30;;
19087;SDS011;9676;50.916;13.352;2023-06-10T15:26:14;12.20;;;11.10;;
19087;SDS011;9676;50.916;13.352;2023-06-10T15:29:04;12.30;;;11.10;;
19087;SDS011;9676;50.916;13.352;2023-06-10T15:31:54;15.97;;;11.70;;
19087;SDS011;9676;50.916;13.352;2023-06-10T15:34:43;12.43;;;11.20;;
19087;SDS011;9676;50.916;13.352;2023-06-10T15:37:36;15.07;;;12.07;;
19087;SDS011;9676;50.916;13.352;2023-06-10T15:40:25;13.70;;;12.30;;
19087;SDS011;9676;50.916;13.352;2023-06-10T15:43:15;13.10;;;11.80;;
19087;SDS011;9676;50.916;13.352;2023-06-10T15:46:04;15.57;;;12.20;;
19087;SDS011;9676;50.916;13.352;2023-06-10T15:48:54;12.40;;;11.20;;
19087;SDS011;9676;50.916;13.352;2023-06-10T15:51:43;12.87;;;11.67;;
19087;SDS011;9676;50.916;13.352;2023-06-10T15:54:38;13.13;;;11.70;;
19087;SDS011;9676;50.916;13.352;2023-06-10T15:57:28;13.50;;;12.17;;
19087;SDS011;9676;50.916;13.352;2023-06-10T16:00:18;13.60;;;12.20;;
19087;SDS011;9676;50.916;13.352;2023-06-10T16:03:08;13.57;;;12.17;;
19087;SDS011;9676;50.916;13.352;2023-06-10T16:05:57;13.87;;;12.40;;
19087;SDS011;9676;50.916;13.352;2023-06-10T16:08:47;14.80;;;12.10;;
19087;SDS011;9676;50.916;13.352;2023-06-10T16:11:39;13.73;;;12.37;;
19087;SDS011;9676;50.916;13.352;2023-06-10T16:14:28;14.40;;;12.63;;
19087;SDS011;9676;50.916;13.352;2023-06-10T16:17:18;12.57;;;11.33;;
19087;SDS011;9676;50.916;13.352;2023-06-10T16:20:08;12.73;;;11.53;;
19087;SDS011;9676;50.916;13.352;2023-06-10T16:22:59;16.93;;;12.03;;
19087;SDS011;9676;50.916;13.352;2023-06-10T16:25:49;14.43;;;11.83;;
19087;SDS011;9676;50.916;13.352;2023-06-10T16:28:39;13.13;;;11.80;;
19087;SDS011;9676;50.916;13.352;2023-06-10T16:31:29;13.20;;;11.90;;
19087;SDS011;9676;50.916;13.352;2023-06-10T16:34:18;13.40;;;12.10;;
19087;SDS011;9676;50.916;13.352;2023-06-10T16:37:08;13.03;;;11.73;;
19087;SDS011;9676;50.916;13.352;2023-06-10T16:40:01;12.97;;;11.67;;
19087;SDS011;9676;50.916;13.352;2023-06-10T16:42:51;13.77;;;12.30;;